Time;durP1;ratioP1;P1;durP2;ratioP2;P2;SDS_P1;SDS_P2;PMS_P1;PMS_P2;Temp;Humidity;BMP_temperature;BMP_pressure;BME280_temperature;BME280_humidity;BME280_pressure;Samples;Min_cycle;Max_cycle;Signal;HPM_P1;HPM_P2
2023/02/08 00:01:24;;;;;;;21.00;11.40;;;;;;;-6.59;67.24;101898.88;107257;1257;69871;-40
2023/02/08 00:03:53;;;;;;;30.50;15.40;;;;;;;-6.61;67.04;101902.09;107358;1257;73924;-40
2023/02/08 00:06:22;;;;;;;28.00;15.10;;;;;;;-6.66;67.17;101902.10;107261;1257;61593;-40
2023/02/08 00:08:50;;;;;;;31.90;15.20;;;;;;;-6.70;67.54;101899.48;106566;1257;1003072;-39
2023/02/08 00:11:19;;;;;;;28.40;14.60;;;;;;;-6.75;67.38;101902.71;107259;1256;74287;-40
2023/02/08 00:13:47;;;;;;;30.80;16.20;;;;;;;-6.77;67.54;101900.36;107271;1258;69627;-39
2023/02/08 00:16:17;;;;;;;27.80;15.30;;;;;;;-6.79;67.54;101902.16;107229;1257;72769;-40
2023/02/08 00:18:46;;;;;;;25.60;14.10;;;;;;;-6.77;67.47;101896.60;107258;1257;60329;-40
2023/02/08 00:21:16;;;;;;;26.20;13.50;;;;;;;-6.78;67.53;101898.65;107256;1257;59573;-40
2023/02/08 00:23:45;;;;;;;;;;;;;;;-6.77;67.61;101897.69;107258;1257;73232;-40
2023/02/08 00:26:14;;;;;;;31.40;15.60;;;;;;;-6.79;68.07;101894.46;107288;1257;68848;-44
2023/02/08 00:28:43;;;;;;;28.40;14.80;;;;;;;-6.85;67.83;101902.37;107280;1257;73741;-40
2023/02/08 00:31:11;;;;;;;27.90;14.60;;;;;;;-6.86;67.70;101908.25;107285;1257;61574;-40
2023/02/08 00:33:41;;;;;;;28.40;14.60;;;;;;;-6.89;68.00;101912.48;107300;1257;60659;-40
2023/02/08 00:36:10;;;;;;;27.70;14.70;;;;;;;-6.92;67.89;101910.36;107299;1258;73543;-40
2023/02/08 00:38:44;;;;;;;27.50;15.10;;;;;;;-6.92;67.95;101907.80;107275;1263;70010;-40
2023/02/08 00:41:13;;;;;;;26.90;15.10;;;;;;;-6.96;68.07;101912.31;106541;1257;1002624;-39
2023/02/08 00:43:44;;;;;;;29.30;14.50;;;;;;;-6.97;68.04;101919.61;107277;1257;62868;-40
2023/02/08 00:46:14;;;;;;;29.60;14.20;;;;;;;-6.90;68.03;101924.90;107278;1258;61249;-41
2023/02/08 00:48:46;;;;;;;29.40;14.90;;;;;;;-6.84;67.99;101926.65;107248;1257;74175;-41
2023/02/08 00:51:15;;;;;;;30.70;15.20;;;;;;;-6.84;68.16;101931.71;107301;1257;69946;-41
2023/02/08 00:53:44;;;;;;;26.30;14.70;;;;;;;-6.83;68.08;101936.59;106535;1262;1016232;-41
2023/02/08 00:56:15;;;;;;;33.00;15.70;;;;;;;-6.82;67.89;101938.20;106550;1257;1003037;-41
2023/02/08 00:58:45;;;;;;;29.00;15.10;;;;;;;-6.83;67.85;101942.55;107313;1257;61202;-40
2023/02/08 01:01:14;;;;;;;28.10;15.70;;;;;;;-6.83;67.84;101944.84;107259;1257;74213;-41
2023/02/08 01:03:43;;;;;;;30.50;15.60;;;;;;;-6.84;67.73;101943.92;106528;1258;1003662;-40
2023/02/08 01:06:15;;;;;;;26.80;14.40;;;;;;;-6.85;67.67;101950.30;106530;1257;1003347;-41
2023/02/08 01:08:45;;;;;;;27.90;15.40;;;;;;;-6.85;67.87;101959.54;107320;1257;60393;-41
2023/02/08 01:11:26;;;;;;;29.30;15.60;;;;;;;-6.83;67.34;101961.70;107242;1261;61508;-40
2023/02/08 01:13:56;;;;;;;27.90;14.50;;;;;;;-6.85;67.15;101962.86;107301;1257;72970;-42
2023/02/08 01:16:29;;;;;;;27.90;15.10;;;;;;;-6.88;66.97;101964.40;106584;1258;1002952;-40
2023/02/08 01:19:00;;;;;;;30.80;14.80;;;;;;;-6.86;67.08;101964.06;107235;1257;72560;-40
2023/02/08 01:21:31;;;;;;;28.20;13.10;;;;;;;-6.82;66.79;101964.21;107225;1257;62935;-41
2023/02/08 01:24:00;;;;;;;26.20;14.10;;;;;;;-6.72;66.72;101966.90;107309;1257;61267;-41
2023/02/08 01:26:31;;;;;;;25.40;13.80;;;;;;;-6.58;66.65;101969.31;107264;1257;74019;-41
2023/02/08 01:29:00;;;;;;;21.80;11.00;;;;;;;-6.46;66.19;101966.66;107297;1262;69765;-41
2023/02/08 01:31:31;;;;;;;28.80;15.00;;;;;;;-6.40;66.10;101971.17;107289;1257;74360;-41
2023/02/08 01:34:00;;;;;;;26.80;14.30;;;;;;;-6.34;66.07;101975.54;106561;1257;1003911;-41
2023/02/08 01:36:29;;;;;;;27.40;14.90;;;;;;;-6.31;65.67;101980.13;107265;1257;61400;-41
2023/02/08 01:38:58;;;;;;;29.30;15.50;;;;;;;-6.33;65.34;101982.07;107324;1257;73978;-41
2023/02/08 01:41:31;;;;;;;30.10;15.20;;;;;;;-6.38;65.07;101989.72;107260;1260;70032;-41
2023/02/08 01:44:12;;;;;;;29.70;14.80;;;;;;;-6.49;64.93;101992.25;107309;1260;73771;-41
2023/02/08 01:46:43;;;;;;;27.10;14.70;;;;;;;-6.60;65.11;101996.98;107255;1257;61692;-41
2023/02/08 01:49:11;;;;;;;;;;;;;;;-6.73;65.28;101998.63;107306;1257;59752;-41
2023/02/08 01:51:44;;;;;;;28.30;14.70;;;;;;;-6.87;65.52;102000.40;107273;1261;73207;-41
2023/02/08 01:54:12;;;;;;;31.10;15.60;;;;;;;-6.99;65.82;102005.66;107268;1258;69242;-40
2023/02/08 01:56:44;;;;;;;29.00;15.10;;;;;;;-7.16;65.72;101995.09;107254;1257;73900;-41
2023/02/08 01:59:19;;;;;;;32.80;16.00;;;;;;;-7.19;66.18;102010.34;107197;1263;63171;-41
2023/02/08 02:01:48;;;;;;;27.30;13.20;;;;;;;-7.22;66.43;102011.94;107162;1257;61518;-41
2023/02/08 02:04:16;;;;;;;20.40;10.50;;;;;;;-7.20;66.73;102014.04;107230;1257;74225;-41
2023/02/08 02:06:47;;;;;;;26.90;12.90;;;;;;;-7.19;66.81;102014.80;106489;1257;1003637;-41
2023/02/08 02:09:31;;;;;;;24.20;14.10;;;;;;;-7.13;66.93;102015.34;106524;1257;1003830;-42
2023/02/08 02:12:01;;;;;;;25.70;13.80;;;;;;;-7.09;67.02;102015.24;107327;1257;59422;-41
2023/02/08 02:14:30;;;;;;;31.90;14.70;;;;;;;-7.10;66.95;102014.45;107310;1263;61528;-39
2023/02/08 02:16:59;;;;;;;29.60;14.30;;;;;;;-7.15;66.87;102020.69;107382;1254;74286;-39
2023/02/08 02:19:41;;;;;;;27.30;13.50;;;;;;;-7.20;67.14;102026.27;107522;1258;69806;-39
2023/02/08 02:22:42;;;;;;;26.40;14.20;;;;;;;-7.27;67.29;102026.41;106836;1255;1003375;-41
2023/02/08 02:25:22;;;;;;;29.10;13.50;;;;;;;-7.37;67.21;102031.77;106784;1254;1003008;-40
2023/02/08 02:28:29;;;;;;;30.30;14.80;;;;;;;-7.45;67.71;102034.29;107604;1258;61512;-40
2023/02/08 02:31:11;;;;;;;30.50;14.20;;;;;;;-7.61;67.72;102028.14;107623;1253;75106;-40
2023/02/08 02:33:42;;;;;;;27.80;13.10;;;;;;;-7.64;67.90;102039.88;107621;1254;70003;-40
2023/02/08 02:36:16;;;;;;;25.40;12.60;;;;;;;-7.63;68.15;102046.10;106833;1258;1003227;-40
2023/02/08 02:39:12;;;;;;;27.70;12.60;;;;;;;-7.56;67.91;102048.68;107567;1254;62115;-40
2023/02/08 02:44:41;;;;;;;28.70;13.70;;;;;;;-7.36;68.14;102051.96;107578;1254;74727;-40
2023/02/08 02:47:38;;;;;;;21.50;12.20;;;;;;;-7.33;68.02;102050.00;107494;1254;69909;-41
2023/02/08 02:50:19;;;;;;;24.10;13.60;;;;;;;-7.30;67.72;102046.33;107599;1254;71643;-40
2023/02/08 02:52:55;;;;;;;28.90;14.30;;;;;;;-7.33;67.34;102056.39;107620;1254;61524;-40
2023/02/08 02:55:24;;;;;;;26.40;14.50;;;;;;;-7.39;67.28;102059.57;107574;1257;61570;-41
2023/02/08 02:57:53;;;;;;;29.10;13.90;;;;;;;-7.45;67.48;102065.30;107535;1254;75063;-41
2023/02/08 03:00:23;;;;;;;28.20;15.40;;;;;;;-7.48;67.50;102062.98;106771;1254;1003098;-41
2023/02/08 03:02:52;;;;;;;26.10;13.70;;;;;;;-7.52;67.47;102060.42;107578;1257;73885;-41
2023/02/08 03:05:20;;;;;;;27.10;14.20;;;;;;;-7.56;67.60;102067.47;107572;1257;61347;-41
2023/02/08 03:08:11;;;;;;;23.60;13.10;;;;;;;-7.62;67.71;102068.94;107653;1256;61502;-41
2023/02/08 03:11:15;;;;;;;25.40;13.20;;;;;;;-7.60;67.72;102066.45;106862;1257;1003340;-41
2023/02/08 03:14:00;;;;;;;23.80;11.50;;;;;;;-7.55;67.65;102068.56;107486;1256;68931;-41
2023/02/08 03:16:41;;;;;;;25.50;13.20;;;;;;;-7.48;67.75;102075.84;107579;1254;72893;-41
2023/02/08 03:19:15;;;;;;;23.10;13.00;;;;;;;-7.44;67.56;102082.89;107588;1256;60744;-41
2023/02/08 03:21:50;;;;;;;26.20;13.30;;;;;;;-7.42;67.52;102088.66;106858;1257;1003106;-41
2023/02/08 03:24:48;;;;;;;24.20;12.80;;;;;;;-7.37;67.52;102088.30;107511;1254;75018;-41
2023/02/08 03:27:39;;;;;;;27.70;13.90;;;;;;;-7.35;67.20;102094.23;106833;1257;1003348;-41
2023/02/08 03:30:33;;;;;;;26.40;13.90;;;;;;;-7.37;67.09;102095.86;107579;1257;72867;-40
2023/02/08 03:33:06;;;;;;;25.60;13.90;;;;;;;-7.37;66.82;102096.75;107542;1257;60307;-41
2023/02/08 03:35:47;;;;;;;28.50;13.90;;;;;;;-7.40;66.84;102102.11;107565;1257;61365;-41
2023/02/08 03:38:31;;;;;;;26.70;13.90;;;;;;;-7.52;66.74;102088.48;106831;1260;1003533;-41
2023/02/08 03:41:00;;;;;;;27.10;14.50;;;;;;;-7.55;66.61;102090.86;107310;1260;69915;-41
2023/02/08 03:43:31;;;;;;;29.90;15.70;;;;;;;-7.53;66.58;102104.18;107631;1254;73955;-40
2023/02/08 03:46:21;;;;;;;29.70;13.70;;;;;;;-7.55;66.41;102107.52;107587;1256;63016;-41
2023/02/08 03:48:53;;;;;;;25.10;12.30;;;;;;;-7.49;66.50;102108.80;107647;1257;60350;-41
2023/02/08 03:51:21;;;;;;;24.70;13.10;;;;;;;-7.38;66.67;102113.18;107569;1253;74269;-41
2023/02/08 03:53:50;;;;;;;25.70;13.30;;;;;;;-7.24;66.39;102118.20;107658;1257;69852;-41
2023/02/08 03:56:43;;;;;;;28.50;15.00;;;;;;;-7.11;66.20;102124.66;107449;1254;72994;-41
2023/02/08 03:59:15;;;;;;;28.70;14.00;;;;;;;-6.99;65.85;102135.50;107633;1257;60679;-41
2023/02/08 04:01:51;;;;;;;27.80;14.60;;;;;;;-6.95;65.66;102133.64;107640;1254;60568;-40
2023/02/08 04:04:19;;;;;;;27.90;14.60;;;;;;;-6.93;65.03;102138.61;107625;1260;75025;-41
2023/02/08 04:06:48;;;;;;;20.00;11.30;;;;;;;-6.93;64.96;102140.31;107561;1257;69375;-40
2023/02/08 04:09:16;;;;;;;25.80;14.10;;;;;;;-6.93;64.67;102143.48;107478;1254;72517;-41
2023/02/08 04:11:45;;;;;;;26.70;14.10;;;;;;;-6.93;64.54;102146.28;107648;1253;61105;-41
2023/02/08 04:14:14;;;;;;;30.50;14.50;;;;;;;-6.95;64.49;102148.40;107695;1259;61465;-41
2023/02/08 04:16:42;;;;;;;33.90;14.70;;;;;;;-6.98;64.44;102148.39;107605;1253;75050;-40
2023/02/08 04:19:11;;;;;;;28.10;14.90;;;;;;;-7.04;64.32;102146.70;106733;1255;1003089;-41
2023/02/08 04:21:40;;;;;;;31.80;15.50;;;;;;;-7.12;64.27;102146.83;107479;1260;73578;-40
2023/02/08 04:24:08;;;;;;;33.20;15.10;;;;;;;-7.20;64.26;102155.23;107507;1259;61743;-41
2023/02/08 04:26:37;;;;;;;29.50;14.60;;;;;;;-7.29;64.19;102159.77;107492;1254;61584;-41
2023/02/08 04:29:05;;;;;;;25.90;13.00;;;;;;;-7.31;64.64;102161.60;107501;1254;74055;-40
2023/02/08 04:31:34;;;;;;;27.30;13.50;;;;;;;-7.28;64.55;102158.77;107500;1259;70216;-41
2023/02/08 04:34:03;;;;;;;29.80;13.60;;;;;;;-7.21;64.74;102162.15;107492;1260;73985;-41
2023/02/08 04:36:31;;;;;;;26.40;14.30;;;;;;;-7.08;64.25;102163.45;107479;1259;60446;-41
2023/02/08 04:39:00;;;;;;;27.00;11.40;;;;;;;-7.00;64.39;102168.67;106758;1260;1003820;-40
2023/02/08 04:41:29;;;;;;;30.20;15.30;;;;;;;-6.92;64.27;102175.17;107539;1254;74058;-40
2023/02/08 04:43:57;;;;;;;28.50;15.40;;;;;;;-6.88;63.89;102175.23;107491;1259;70227;-41
2023/02/08 04:46:26;;;;;;;28.70;15.20;;;;;;;-6.90;63.94;102175.13;107457;1258;73945;-40
2023/02/08 04:48:54;;;;;;;30.20;15.20;;;;;;;-6.96;63.73;102178.92;107483;1260;61733;-41
2023/02/08 04:51:25;;;;;;;29.30;16.00;;;;;;;-6.98;63.72;102177.39;107477;1254;61542;-41
2023/02/08 04:53:54;;;;;;;28.80;13.70;;;;;;;-6.99;63.41;102180.02;107476;1257;75035;-41
2023/02/08 04:56:22;;;;;;;30.10;15.20;;;;;;;-7.04;63.60;102181.66;106766;1254;1005100;-41
2023/02/08 04:58:51;;;;;;;29.40;15.30;;;;;;;-7.16;63.43;102180.02;107515;1254;74163;-41
2023/02/08 05:01:19;;;;;;;32.90;14.80;;;;;;;-7.26;63.48;102186.60;107466;1259;61557;-40
2023/02/08 05:03:48;;;;;;;30.40;15.40;;;;;;;-7.33;63.74;102193.36;106773;1254;1003677;-41
2023/02/08 05:06:16;;;;;;;26.90;14.00;;;;;;;-7.40;63.57;102195.80;107493;1260;75050;-41
2023/02/08 05:08:45;;;;;;;30.50;14.60;;;;;;;-7.41;63.57;102200.02;107510;1260;70066;-41
2023/02/08 05:11:19;;;;;;;31.50;15.00;;;;;;;-7.47;63.53;102184.48;107486;1254;73886;-40
2023/02/08 05:13:48;;;;;;;29.90;14.00;;;;;;;-7.29;63.47;102202.40;107498;1259;62342;-40
2023/02/08 05:16:17;;;;;;;27.10;13.80;;;;;;;-7.14;63.71;102203.84;107470;1254;61508;-40
2023/02/08 05:18:46;;;;;;;30.10;15.20;;;;;;;-7.01;62.98;102209.82;106704;1260;1003067;-41
2023/02/08 05:21:15;;;;;;;28.70;15.00;;;;;;;-6.96;62.19;102205.86;106751;1259;1003666;-41
2023/02/08 05:23:44;;;;;;;24.80;13.80;;;;;;;-6.99;61.53;102210.92;107498;1255;74294;-41
2023/02/08 05:26:14;;;;;;;26.10;13.90;;;;;;;-7.12;61.16;102215.21;107502;1254;61675;-41
2023/02/08 05:28:42;;;;;;;31.20;15.90;;;;;;;-7.26;61.00;102218.13;107465;1255;61497;-40
2023/02/08 05:31:12;;;;;;;28.30;14.90;;;;;;;-7.36;61.21;102222.69;107488;1254;74414;-40
2023/02/08 05:33:41;;;;;;;28.00;14.60;;;;;;;-7.53;61.06;102226.89;107543;1255;69722;-40
2023/02/08 05:36:10;;;;;;;30.10;15.50;;;;;;;-7.77;60.92;102240.30;107505;1255;72576;-41
2023/02/08 05:38:38;;;;;;;33.00;17.10;;;;;;;-7.91;61.28;102239.91;107482;1254;61227;-40
2023/02/08 05:41:07;;;;;;;30.70;15.40;;;;;;;-7.95;61.46;102241.04;107453;1255;61559;-40
2023/02/08 05:43:36;;;;;;;22.70;11.50;;;;;;;-7.89;61.83;102244.84;107500;1254;75039;-40
2023/02/08 05:46:04;;;;;;;27.40;14.50;;;;;;;-7.79;61.87;102246.55;107454;1259;69968;-41
2023/02/08 05:48:33;;;;;;;27.60;14.20;;;;;;;-7.67;61.74;102250.15;107461;1254;73730;-40
2023/02/08 05:51:01;;;;;;;28.60;14.80;;;;;;;-7.56;61.47;102246.52;107510;1259;62046;-39
2023/02/08 05:53:30;;;;;;;27.40;15.10;;;;;;;-7.42;61.72;102246.98;107506;1255;61550;-39
2023/02/08 05:55:58;;;;;;;28.00;14.50;;;;;;;-7.37;62.06;102253.47;107514;1254;75032;-40
2023/02/08 05:58:27;;;;;;;31.60;15.50;;;;;;;-7.36;62.42;102255.89;107491;1254;68842;-40
2023/02/08 06:00:56;;;;;;;21.90;11.20;;;;;;;-7.31;62.91;102260.25;107516;1259;74004;-41
2023/02/08 06:03:24;;;;;;;32.20;15.70;;;;;;;-7.27;62.82;102261.61;107520;1254;61619;-40
2023/02/08 06:05:53;;;;;;;30.30;15.90;;;;;;;-7.25;62.94;102263.46;107463;1254;61290;-40
2023/02/08 06:08:21;;;;;;;30.80;15.80;;;;;;;-7.19;62.90;102270.41;107468;1254;74828;-40
2023/02/08 06:10:50;;;;;;;28.30;14.70;;;;;;;-7.20;62.88;102273.80;107448;1260;69238;-41
2023/02/08 06:13:18;;;;;;;25.90;14.80;;;;;;;-7.23;63.01;102269.41;107424;1254;74104;-41
2023/02/08 06:15:47;;;;;;;34.70;15.90;;;;;;;-7.22;63.33;102274.38;107442;1255;61132;-38
2023/02/08 06:18:16;;;;;;;34.40;16.10;;;;;;;-7.21;62.99;102277.41;107475;1254;61508;-39
2023/02/08 06:20:44;;;;;;;29.80;16.10;;;;;;;-7.24;62.96;102276.77;106724;1260;1003534;-39
2023/02/08 06:23:13;;;;;;;32.90;15.70;;;;;;;-7.31;63.42;102274.85;107428;1254;69859;-39
2023/02/08 06:25:44;;;;;;;26.70;13.70;;;;;;;-7.31;63.50;102284.69;106800;1254;1003429;-39
2023/02/08 06:28:12;;;;;;;27.10;14.10;;;;;;;-7.28;63.83;102287.31;107336;1254;62194;-39
2023/02/08 06:30:41;;;;;;;28.30;14.10;;;;;;;-7.20;64.06;102289.92;107503;1254;60319;-39
2023/02/08 06:33:10;;;;;;;31.30;12.40;;;;;;;-7.05;64.03;102298.69;107493;1255;74870;-40
2023/02/08 06:35:46;;;;;;;31.20;15.60;;;;;;;-6.95;63.79;102299.30;107490;1254;68901;-39
2023/02/08 06:38:14;;;;;;;30.00;16.10;;;;;;;-6.90;63.68;102293.38;107460;1254;73848;-40
2023/02/08 06:40:45;;;;;;;31.40;15.70;;;;;;;-6.88;63.56;102295.63;107366;1254;61000;-39
2023/02/08 06:43:14;;;;;;;30.10;15.30;;;;;;;-6.83;63.63;102297.15;107377;1260;61526;-40
2023/02/08 06:45:46;;;;;;;22.30;12.40;;;;;;;-6.78;63.64;102305.23;107400;1254;74727;-40
2023/02/08 06:48:14;;;;;;;29.50;15.60;;;;;;;-6.79;63.39;102306.17;107470;1254;69198;-40
2023/02/08 06:50:43;;;;;;;29.80;15.50;;;;;;;-6.79;63.22;102310.46;107435;1254;73863;-40
2023/02/08 06:53:12;;;;;;;29.40;15.70;;;;;;;-6.79;63.64;102302.18;107458;1254;60675;-40
2023/02/08 06:55:40;;;;;;;30.60;16.70;;;;;;;-6.81;63.28;102304.90;106692;1254;1002987;-41
2023/02/08 06:58:10;;;;;;;30.50;15.90;;;;;;;-6.86;63.43;102300.66;107463;1254;74990;-41
2023/02/08 07:00:38;;;;;;;34.20;16.80;;;;;;;-6.87;63.76;102302.06;107458;1255;69924;-41
2023/02/08 07:03:08;;;;;;;31.80;16.30;;;;;;;-6.88;63.81;102302.89;107499;1254;71010;-41
2023/02/08 07:05:38;;;;;;;34.40;16.60;;;;;;;-6.95;64.01;102303.82;107444;1254;62960;-41
2023/02/08 07:08:07;;;;;;;31.80;15.00;;;;;;;-6.97;64.06;102306.53;106734;1254;1003404;-41
2023/02/08 07:10:37;;;;;;;30.50;15.00;;;;;;;-6.91;64.18;102311.31;107453;1254;74679;-41
2023/02/08 07:13:06;;;;;;;28.30;13.80;;;;;;;-6.76;64.25;102312.78;107493;1254;68777;-41
2023/02/08 07:15:34;;;;;;;30.50;14.90;;;;;;;-6.60;64.05;102310.22;107452;1254;74104;-41
2023/02/08 07:18:03;;;;;;;30.20;16.10;;;;;;;-6.46;64.19;102308.60;107453;1254;60437;-41
2023/02/08 07:20:31;;;;;;;27.00;15.60;;;;;;;-6.36;63.97;102308.30;107475;1254;61452;-41
2023/02/08 07:23:00;;;;;;;30.80;15.90;;;;;;;-6.31;63.75;102305.42;107487;1254;75122;-41
2023/02/08 07:25:28;;;;;;;32.90;16.20;;;;;;;-6.26;63.87;102299.11;107479;1254;68726;-41
2023/02/08 07:27:57;;;;;;;28.70;16.40;;;;;;;-6.22;63.53;102299.41;107478;1254;73547;-41
2023/02/08 07:30:26;;;;;;;28.20;15.30;;;;;;;-6.22;63.20;102300.14;107474;1254;61249;-41
2023/02/08 07:32:55;;;;;;;29.40;16.90;;;;;;;-6.23;63.67;102306.08;107508;1254;61348;-41
2023/02/08 07:35:23;;;;;;;32.00;15.60;;;;;;;-6.22;63.65;102310.21;107505;1254;75055;-41
2023/02/08 07:37:51;;;;;;;32.20;16.10;;;;;;;-6.16;63.43;102309.13;107473;1254;69702;-40
2023/02/08 07:40:20;;;;;;;31.10;16.20;;;;;;;-6.07;63.62;102314.51;107491;1254;74103;-41
2023/02/08 07:42:48;;;;;;;32.20;16.50;;;;;;;-5.95;63.85;102317.41;107457;1260;61936;-40
2023/02/08 07:45:24;;;;;;;32.60;15.60;;;;;;;-5.81;63.35;102321.74;107477;1254;62006;-40
2023/02/08 07:47:53;;;;;;;27.90;15.20;;;;;;;-5.67;63.19;102318.73;107467;1254;73636;-40
2023/02/08 07:50:21;;;;;;;27.30;15.40;;;;;;;-5.46;63.29;102316.17;107474;1254;69894;-40
2023/02/08 07:52:50;;;;;;;26.30;13.90;;;;;;;-5.19;63.07;102314.84;106799;1254;1002848;-40
2023/02/08 07:55:19;;;;;;;33.70;16.10;;;;;;;-4.93;62.48;102313.05;107451;1254;61558;-40
2023/02/08 07:57:48;;;;;;;33.10;17.20;;;;;;;-4.69;61.75;102313.55;107510;1254;61638;-40
2023/02/08 08:00:18;;;;;;;25.70;14.80;;;;;;;-4.50;61.63;102313.40;106744;1254;1003419;-40
2023/02/08 08:02:49;;;;;;;32.60;18.50;;;;;;;-4.30;60.98;102316.70;107500;1254;68130;-41
2023/02/08 08:05:17;;;;;;;31.80;17.50;;;;;;;-4.09;60.97;102313.43;106731;1254;1016063;-40
2023/02/08 08:07:46;;;;;;;33.00;17.90;;;;;;;-3.85;60.32;102317.87;107457;1254;61595;-40
2023/02/08 08:10:15;;;;;;;30.20;16.60;;;;;;;-3.61;59.88;102315.67;107477;1254;61415;-41
2023/02/08 08:12:44;;;;;;;31.50;17.50;;;;;;;-3.35;59.38;102315.02;106722;1254;1002836;-41
2023/02/08 08:15:13;;;;;;;33.10;17.40;;;;;;;-3.06;59.06;102308.85;107421;1254;69247;-40
2023/02/08 08:17:42;;;;;;;34.80;17.70;;;;;;;-2.78;58.65;102308.06;107527;1254;73747;-39
2023/02/08 08:20:10;;;;;;;33.50;19.00;;;;;;;-2.51;57.77;102312.84;107524;1257;60362;-39
2023/02/08 08:22:39;;;;;;;32.90;17.70;;;;;;;-2.27;57.10;102312.47;107541;1254;61295;-40
2023/02/08 08:25:07;;;;;;;31.80;16.30;;;;;;;-2.05;56.50;102319.66;106778;1259;1003434;-46
2023/02/08 08:27:36;;;;;;;33.70;18.70;;;;;;;-1.81;55.78;102321.41;106770;1254;1002944;-48
2023/02/08 08:30:10;;;;;;;34.20;18.60;;;;;;;-1.65;55.23;102322.98;107536;1254;73829;-42
2023/02/08 08:32:39;;;;;;;36.20;19.00;;;;;;;-1.51;55.03;102321.22;107493;1254;61573;-40
2023/02/08 08:35:08;;;;;;;23.50;14.80;;;;;;;-1.36;53.99;102314.60;107471;1254;61526;-40
2023/02/08 08:37:36;;;;;;;27.70;15.10;;;;;;;-1.21;52.71;102314.36;107555;1254;72874;-40
2023/02/08 08:40:06;;;;;;;25.60;14.10;;;;;;;-1.17;52.22;102316.23;107497;1254;69913;-40
2023/02/08 08:42:35;;;;;;;21.00;12.90;;;;;;;-1.04;52.00;102317.09;107522;1254;73837;-40
2023/02/08 08:45:04;;;;;;;29.30;13.70;;;;;;;-0.83;51.39;102317.46;107590;1254;59739;-39
2023/02/08 08:47:33;;;;;;;27.90;14.50;;;;;;;-0.63;51.36;102320.97;107557;1254;61171;-39
2023/02/08 08:50:01;;;;;;;26.40;13.50;;;;;;;-0.42;50.49;102323.51;107543;1254;74905;-39
2023/02/08 08:52:30;;;;;;;20.10;12.60;;;;;;;-0.23;49.54;102318.88;107552;1259;68285;-40
2023/02/08 08:55:00;;;;;;;21.60;12.80;;;;;;;-0.10;48.13;102317.02;106794;1254;1003045;-39
2023/02/08 08:57:29;;;;;;;23.40;13.70;;;;;;;0.01;48.40;102320.46;106761;1254;1016229;-40
2023/02/08 08:59:57;;;;;;;21.50;12.50;;;;;;;0.16;48.53;102322.15;107545;1254;61217;-40
2023/02/08 09:02:26;;;;;;;20.40;12.90;;;;;;;0.38;48.45;102326.36;107490;1254;74074;-40
2023/02/08 09:04:58;;;;;;;19.00;11.60;;;;;;;0.64;47.92;102332.23;107466;1254;69832;-40
2023/02/08 09:07:27;;;;;;;17.70;8.80;;;;;;;0.74;47.00;102329.07;107479;1259;74173;-40
2023/02/08 09:09:55;;;;;;;12.60;7.20;;;;;;;0.79;45.75;102324.98;107533;1254;60742;-40
2023/02/08 09:12:24;;;;;;;12.90;7.80;;;;;;;0.70;44.26;102331.46;107486;1254;61628;-40
2023/02/08 09:14:52;;;;;;;17.20;10.20;;;;;;;0.55;44.58;102324.31;107492;1254;75010;-40
2023/02/08 09:17:21;;;;;;;18.80;9.00;;;;;;;0.39;45.61;102326.76;107457;1254;69907;-39
2023/02/08 09:19:49;;;;;;;15.70;9.00;;;;;;;0.42;46.37;102322.91;107484;1254;73086;-40
2023/02/08 09:22:19;;;;;;;11.70;7.60;;;;;;;0.55;46.13;102319.94;107505;1254;60775;-40
2023/02/08 09:24:47;;;;;;;16.50;9.30;;;;;;;0.68;46.13;102316.23;107487;1254;61337;-40
2023/02/08 09:27:17;;;;;;;13.50;9.00;;;;;;;0.79;45.79;102310.83;107539;1254;74652;-40
2023/02/08 09:29:46;;;;;;;20.80;10.60;;;;;;;0.82;45.65;102312.69;106752;1254;1003656;-40
2023/02/08 09:32:14;;;;;;;15.20;10.00;;;;;;;0.79;45.89;102316.70;107475;1254;74094;-40
2023/02/08 09:34:43;;;;;;;17.90;11.10;;;;;;;0.65;46.23;102321.23;107494;1254;60440;-40
2023/02/08 09:37:11;;;;;;;18.00;10.00;;;;;;;0.53;46.22;102318.12;107521;1254;61266;-40
2023/02/08 09:39:40;;;;;;;21.10;11.40;;;;;;;0.45;47.09;102320.05;107478;1259;74169;-40
2023/02/08 09:42:11;;;;;;;21.50;12.30;;;;;;;0.53;47.69;102315.24;107505;1259;69831;-40
2023/02/08 09:44:46;;;;;;;17.60;11.00;;;;;;;0.77;47.19;102311.30;106733;1254;1003494;-40
2023/02/08 09:47:34;;;;;;;22.20;11.50;;;;;;;1.04;47.00;102303.75;107481;1254;60696;-40
2023/02/08 09:50:12;;;;;;;21.90;12.70;;;;;;;1.29;46.99;102296.82;107537;1254;60306;-40
2023/02/08 09:52:42;;;;;;;21.30;11.30;;;;;;;1.49;46.46;102295.31;106771;1254;1003383;-40
2023/02/08 09:55:34;;;;;;;22.70;11.90;;;;;;;1.68;46.24;102291.52;107470;1254;69016;-40
2023/02/08 09:58:40;;;;;;;21.70;12.30;;;;;;;1.90;45.83;102291.98;107461;1254;73689;-40
2023/02/08 10:01:18;;;;;;;21.70;11.50;;;;;;;2.06;45.91;102295.98;107419;1254;60922;-40
2023/02/08 10:03:47;;;;;;;24.50;11.60;;;;;;;2.36;45.75;102290.07;107477;1254;60901;-50
2023/02/08 10:06:17;;;;;;;17.70;9.20;;;;;;;2.61;44.97;102285.45;107518;1254;74034;-40
2023/02/08 10:08:50;;;;;;;22.20;12.60;;;;;;;2.85;44.69;102284.89;107504;1254;69038;-40
2023/02/08 10:11:27;;;;;;;19.40;12.20;;;;;;;3.13;44.30;102281.11;107500;1254;72645;-40
2023/02/08 10:14:06;;;;;;;21.90;12.40;;;;;;;3.37;43.97;102278.36;107393;1254;60481;-40
2023/02/08 10:20:08;;;;;;;26.70;15.90;;;;;;;3.95;42.68;102277.20;104067;1293;600760;-40
2023/02/08 10:22:55;;;;;;;22.10;15.00;;;;;;;3.97;41.13;102271.59;106570;1267;60461;-40
2023/02/08 10:25:30;;;;;;;21.80;12.80;;;;;;;3.78;41.78;102266.73;106567;1266;61299;-40
2023/02/08 10:28:23;;;;;;;22.80;14.40;;;;;;;3.64;42.09;102267.84;106601;1267;73112;-39
2023/02/08 10:31:03;;;;;;;23.70;15.50;;;;;;;3.58;42.74;102266.98;106606;1267;69821;-39
2023/02/08 10:33:43;;;;;;;;;;;;;;;3.65;42.47;102266.02;106689;1266;175213;-40
2023/02/08 10:36:17;;;;;;;25.70;14.70;;;;;;;3.75;42.81;102269.56;106788;1264;60803;-39
2023/02/08 10:38:48;;;;;;;22.50;13.50;;;;;;;3.93;42.24;102272.34;106752;1264;61506;-39
2023/02/08 10:41:22;;;;;;;20.60;13.60;;;;;;;4.16;41.90;102269.20;106809;1264;73531;-39
2023/02/08 10:44:01;;;;;;;24.90;15.00;;;;;;;4.39;41.51;102270.42;106852;1263;69595;-39
2023/02/08 10:46:34;;;;;;;20.60;13.00;;;;;;;4.54;41.06;102266.64;106783;1267;73964;-40
2023/02/08 10:49:22;;;;;;;21.50;13.70;;;;;;;4.62;40.96;102260.30;106785;1267;60557;-39
2023/02/08 10:51:51;;;;;;;22.80;14.70;;;;;;;4.72;40.54;102258.88;106824;1264;59643;-40
2023/02/08 10:54:19;;;;;;;23.10;14.40;;;;;;;4.79;40.84;102255.73;106827;1269;73961;-40
2023/02/08 10:57:01;;;;;;;22.20;14.10;;;;;;;4.97;40.70;102261.38;106748;1264;69972;-39
2023/02/08 10:59:44;;;;;;;20.50;14.10;;;;;;;5.21;40.39;102263.55;106738;1264;73696;-40
2023/02/08 11:02:25;;;;;;;22.30;14.70;;;;;;;5.42;40.10;102262.99;106789;1264;60319;-40
2023/02/08 11:05:18;;;;;;;21.30;14.40;;;;;;;5.61;39.70;102264.58;106851;1267;60231;-40
2023/02/08 11:08:15;;;;;;;22.20;14.00;;;;;;;5.83;39.21;102264.08;106768;1264;74459;-40
2023/02/08 11:10:59;;;;;;;25.10;14.90;;;;;;;6.06;38.55;102270.27;106715;1268;69928;-40
2023/02/08 11:13:50;;;;;;;21.00;12.80;;;;;;;6.17;38.24;102271.95;106820;1266;73865;-40
2023/02/08 11:16:22;;;;;;;19.60;13.60;;;;;;;6.27;37.86;102272.73;106851;1266;60726;-40
2023/02/08 11:18:54;;;;;;;17.40;12.10;;;;;;;6.33;37.92;102272.23;106746;1264;60566;-40
2023/02/08 11:21:25;;;;;;;20.90;13.60;;;;;;;6.43;37.70;102274.39;106841;1267;74251;-39
2023/02/08 11:23:53;;;;;;;20.40;13.20;;;;;;;6.57;37.30;102277.64;106793;1267;69950;-40
2023/02/08 11:26:31;;;;;;;21.20;13.20;;;;;;;6.45;37.12;102261.20;106787;1264;73881;-40
2023/02/08 11:29:23;;;;;;;21.70;13.80;;;;;;;6.59;36.76;102277.66;106748;1264;60637;-40
2023/02/08 11:32:01;;;;;;;18.40;12.30;;;;;;;6.67;36.57;102280.56;106851;1266;60335;-40